METAR Data
IDs: Format: Raw Decoded Include TAF

Data at: 0724 UTC 23 Feb 2019

KT82 230715Z AUTO 17009KT 130V190 5SM BR OVC003 14/13 A2981 RMK AO2 T01350129
KT82 230655Z AUTO 16006KT 3SM BR OVC003 14/13 A2980 RMK AO2 T01390130
KT82 230635Z AUTO 15005KT 2SM BR OVC003 14/13 A2982 RMK AO2 T01410133
KT82 230615Z AUTO 14003KT 4SM BR OVC003 14/13 A2982 RMK AO2 T01400132
KT82 230555Z AUTO 12003KT 5SM BR OVC003 14/13 A2983 RMK AO2 T01400131 10175 20140 401870081
KT82 230535Z AUTO 14004KT 5SM BR OVC003 14/13 A2983 RMK AO2 T01400131
KT82 230515Z AUTO 15003KT 3SM BR OVC003 14/13 A2984 RMK AO2 T01400131
KT82 230455Z AUTO 14004KT 3SM BR OVC005 14/13 A2984 RMK AO2 T01420131
KT82 230435Z AUTO 13006KT 4SM BR OVC007 15/13 A2984 RMK AO2 T01470132
KT82 230415Z AUTO 14004KT 10SM OVC009 15/13 A2985 RMK AO2 T01500130
KT82 230355Z AUTO 12004KT 10SM OVC011 15/13 A2985 RMK AO2 T01530132
KT82 230335Z AUTO 14004KT 10SM OVC013 16/13 A2984 RMK AO2 T01550133
KT82 230315Z AUTO 14003KT 10SM OVC015 16/13 A2985 RMK AO2 T01550133
KT82 230255Z AUTO 13006KT 10SM OVC017 15/13 A2986 RMK AO2 T01530132
KT82 230235Z AUTO 13004KT 10SM OVC019 15/13 A2986 RMK AO2 T01530130
KT82 230215Z AUTO 12003KT 10SM OVC021 15/13 A2986 RMK AO2 T01480126
KT82 230155Z AUTO 10003KT 10SM OVC023 15/12 A2986 RMK AO2 T01470123
KT82 230135Z AUTO 09003KT 10SM OVC023 15/12 A2986 RMK AO2 T01470121
KT82 230115Z AUTO 10004KT 10SM OVC025 15/12 A2986 RMK AO2 T01500121
KT82 230055Z AUTO 10003KT 10SM OVC025 16/12 A2986 RMK AO2 T01550122
KT82 230035Z AUTO 09004KT 10SM OVC025 16/12 A2985 RMK AO2 T01570122
KT82 230015Z AUTO 10007KT 10SM BKN026 16/12 A2984 RMK AO2 T01630122
KT82 222355Z AUTO 17004KT 10SM SCT026 18/13 A2983 RMK AO2 T01760127 10187 20145
KT82 222335Z AUTO 16003KT 10SM SCT024 18/13 A2983 RMK AO2 T01760127
KT82 222315Z AUTO 16003KT 10SM SCT022 18/13 A2984 RMK AO2 T01800126
KT82 222255Z AUTO 12006KT 10SM OVC022 19/13 A2984 RMK AO2 T01860130
KT82 222235Z AUTO 17005KT 10SM OVC020 18/13 A2985 RMK AO2 T01820129
KT82 222215Z AUTO 18006KT 10SM OVC018 18/13 A2986 RMK AO2 T01770128
KT82 222155Z AUTO 19008KT 10SM OVC018 18/13 A2986 RMK AO2 T01760128
KT82 222135Z AUTO 19007KT 10SM OVC016 17/13 A2986 RMK AO2 T01710127
KT82 222115Z AUTO 20006KT 10SM OVC016 17/13 A2987 RMK AO2 T01690125
KT82 222055Z AUTO 22006KT 10SM OVC016 17/13 A2987 RMK AO2 T01670126
KT82 222035Z AUTO 21006KT 10SM OVC016 16/12 A2988 RMK AO2 T01630124
KT82 222015Z AUTO 00000KT 10SM OVC014 16/12 A2989 RMK AO2 T01550119
KT82 221955Z AUTO 00000KT 10SM OVC012 15/12 A2990 RMK AO2 T01540119
KT82 221935Z AUTO 20005KT 10SM OVC012 15/12 A2991 RMK AO2 T01520117
KT82 221915Z AUTO 23007KT 10SM OVC012 15/12 A2993 RMK AO2 T01500116
KT82 221855Z AUTO 22006KT 10SM OVC012 15/12 A2994 RMK AO2 T01500119
KT82 221835Z AUTO 22008KT 10SM OVC012 15/12 A2994 RMK AO2 T01490115
KT82 221815Z AUTO 24007KT 10SM OVC010 15/12 A2994 RMK AO2 T01500116
KT82 221755Z AUTO 23006KT 10SM OVC010 15/12 A2995 RMK AO2 T01450116 10145 20095
KT82 221735Z AUTO 20005KT 10SM OVC008 14/12 A2996 RMK AO2 T01430118
KT82 221715Z AUTO 16003KT 10SM OVC008 14/12 A2996 RMK AO2 T01360117
KT82 221655Z AUTO 16006KT 10SM OVC006 13/12 A2996 RMK AO2 T01320118
KT82 221635Z AUTO 19007KT 10SM OVC004 12/12 A2997 RMK AO2 T01240118
KT82 221615Z AUTO 13003KT 7SM OVC002 12/11 A2997 RMK AO2 T01170111
KT82 221555Z AUTO 12005KT 3SM BR OVC002 12/11 A2997 RMK AO2 T01160110
KT82 221535Z AUTO 00000KT 1/2SM FG OVC002 11/10 A2997 RMK AO2 T01050100
KT82 221515Z AUTO 00000KT 1/4SM FG OVC002 10/10 A2997 RMK AO2 T01020096
KT82 221455Z AUTO 00000KT 1/4SM FG OVC002 10/09 A2998 RMK AO2 T01000093
KT82 221435Z AUTO 00000KT 1/4SM FG OVC002 10/09 A2997 RMK AO2 T00980092
KT82 221415Z AUTO 00000KT 1/2SM FG OVC002 10/09 A2997 RMK AO2 T00960090
KT82 221355Z AUTO 00000KT 1 1/4SM BR OVC002 10/09 A2996 RMK AO2 T00950088
KT82 221335Z AUTO 00000KT 1 1/2SM BR OVC002 10/09 A2995 RMK AO2 T00950088
KT82 221315Z AUTO 00000KT 2SM BR OVC004 10/09 A2993 RMK AO2 T00950088
KT82 221255Z AUTO 00000KT 4SM BR OVC004 10/09 A2994 RMK AO2 T00950087
KT82 221235Z AUTO 00000KT 5SM BR OVC004 10/09 A2994 RMK AO2 T00950087
KT82 221215Z AUTO 00000KT 4SM BR OVC004 10/09 A2993 RMK AO2 T00960088
KT82 221155Z AUTO 00000KT 4SM BR OVC004 10/09 A2992 RMK AO2 T00950087 10095 20081
KT82 221135Z AUTO 00000KT 4SM BR OVC004 10/09 A2992 RMK AO2 T00950086
KT82 221115Z AUTO 29005KT 3SM -RA OVC004 09/08 A2992 RMK AO2 T00910081
KT82 221055Z AUTO 29005KT 5SM BR OVC004 10/09 A2991 RMK AO2 T00950085
KT82 221035Z AUTO 09003KT 7SM OVC004 09/08 A2990 RMK AO2 T00900077
KT82 221015Z AUTO 00000KT 7SM OVC004 09/08 A2991 RMK AO2 T00870075
KT82 220955Z AUTO 00000KT 7SM OVC004 09/08 A2991 RMK AO2 T00870075
KT82 220935Z AUTO 13005KT 7SM OVC004 09/07 A2989 RMK AO2 T00850073
KT82 220915Z AUTO 10006KT 5SM BR OVC004 08/07 A2987 RMK AO2 T00810069
KT82 220855Z AUTO 10006KT 7SM OVC006 08/07 A2987 RMK AO2 T00820066
KT82 220835Z AUTO 10005KT 10SM OVC006 08/07 A2990 RMK AO2 T00820065
KT82 220815Z AUTO 10005KT 10SM OVC006 08/06 A2991 RMK AO2 T00810064
KT82 220755Z AUTO 10003KT 10SM OVC008 08/06 A2992 RMK AO2 T00810062
KT82 220735Z AUTO 00000KT 10SM OVC008 08/06 A2992 RMK AO2 T00810061
KT82 220715Z AUTO 09005KT 10SM OVC008 08/06 A2992 RMK AO2 T00820061
KT82 220655Z AUTO 08006KT 10SM BKN010 OVC023 08/06 A2993 RMK AO2 T00830061
KT82 220635Z AUTO 12005KT 10SM BKN012 OVC023 09/06 A2995 RMK AO2 T00850061
KT82 220615Z AUTO 11004KT 10SM OVC010 09/06 A2996 RMK AO2 T00860062
KT82 220555Z AUTO 09005KT 10SM OVC010 09/06 A2996 RMK AO2 T00870061 10106 20087 401220031
KT82 220535Z AUTO 10006KT 10SM OVC010 09/06 A2996 RMK AO2 T00880062
KT82 220515Z AUTO 08005KT 10SM OVC012 09/06 A2996 RMK AO2 T00900062
KT82 220455Z AUTO 07003KT 10SM OVC012 09/06 A2997 RMK AO2 T00900062
KT82 220435Z AUTO 08005KT 10SM OVC012 09/06 A2997 RMK AO2 T00910062
KT82 220415Z AUTO 11006KT 10SM OVC012 09/06 A2996 RMK AO2 T00930063
KT82 220355Z AUTO 11003KT 10SM OVC012 09/06 A2996 RMK AO2 T00930062
KT82 220335Z AUTO 03003KT 10SM BKN014 OVC018 10/06 A2996 RMK AO2 T00950061
KT82 220315Z AUTO 11004KT 10SM OVC020 10/06 A2994 RMK AO2 T00950061
KT82 220255Z AUTO 08007KT 10SM BKN013 OVC022 10/06 A2993 RMK AO2 T00960062
KT82 220235Z AUTO 09004KT 10SM OVC013 10/06 A2992 RMK AO2 T00960061
KT82 220215Z AUTO 09004KT 10SM OVC013 10/06 A2990 RMK AO2 T00970060
KT82 220155Z AUTO 07006KT 10SM OVC013 10/06 A2989 RMK AO2 T00980059
KT82 220135Z AUTO 06005KT 10SM OVC013 10/06 A2989 RMK AO2 T01000056
KT82 220115Z AUTO 08004KT 10SM BKN013 OVC024 10/05 A2988 RMK AO2 T01000053
KT82 220055Z AUTO 08005KT 10SM SCT017 OVC024 10/05 A2988 RMK AO2 T01020051
KT82 220035Z AUTO 08006KT 10SM OVC022 10/05 A2987 RMK AO2 T01030051
KT82 220015Z AUTO 09008KT 10SM OVC024 11/05 A2987 RMK AO2 T01050050
KT82 212355Z AUTO 09006KT 10SM OVC024 11/05 A2987 RMK AO2 T01060050 10122 20102
KT82 212335Z AUTO 10007KT 10SM OVC024 11/05 A2986 RMK AO2 T01100049
KT82 212315Z AUTO 09007KT 10SM OVC024 11/05 A2986 RMK AO2 T01100050
KT82 212255Z AUTO 09007KT 10SM OVC026 11/05 A2986 RMK AO2 T01110047
KT82 212235Z AUTO 09006KT 10SM OVC028 11/05 A2986 RMK AO2 T01130046
KT82 212215Z AUTO 09007KT 10SM OVC030 11/05 A2987 RMK AO2 T01130046
KT82 212155Z AUTO 09006KT 10SM OVC030 11/04 A2986 RMK AO2 T01130044
KT82 212135Z AUTO 08007KT 10SM OVC032 12/05 A2986 RMK AO2 T01150046
KT82 212115Z AUTO 10008KT 10SM OVC032 12/04 A2987 RMK AO2 T01150042
KT82 212055Z AUTO 10006KT 070V140 10SM OVC034 12/05 A2988 RMK AO2 T01150046
KT82 212035Z AUTO 11005KT 10SM OVC034 12/05 A2989 RMK AO2 T01210051
KT82 212015Z AUTO 09007KT 10SM OVC034 12/05 A2990 RMK AO2 T01180049
KT82 211955Z AUTO 09006KT 10SM OVC036 12/05 A2990 RMK AO2 T01160049
KT82 211935Z AUTO 08006KT 10SM OVC038 11/05 A2991 RMK AO2 T01140051